KBWI/BWI METAR and TAF weather

Enter ICAO airport designator
Station Type Date Time Source
KBWI METAR 2020/09/21 23:54 UTC NOAA

KBWI 212354Z 00000KT 10SM FEW045 FEW250 14/05 A3042 RMK AO2 SLP300 T01390050 10194 20122 56010


Station Type Date Time Source
KBWI Decoded METAR 2020/09/21 23:54 UTC NOAA

BALTIMORE-WASHINGTON INTERNATIONAL , MD, United States (KBWI) 39-10N 076-41W 59M
Sep 21, 2020 - 07:54 PM EDT / 2020.09.21 2354 UTC
Wind: Calm:0
Visibility: 10 mile(s):0
Sky conditions: mostly clear
Temperature: 57.0 F (13.9 C)
Dew Point: 41.0 F (5.0 C)
Relative Humidity: 54%
Pressure (altimeter): 30.42 in. Hg (1030 hPa)
Pressure tendency: 0.03 inches (1.0 hPa) lower than three hours ago
ob: KBWI 212354Z 00000KT 10SM FEW045 FEW250 14/05 A3042 RMK AO2 SLP300 T01390050 10194 20122 56010
cycle: 0

Station Type Date Time Source
KBWI TAF 2020/09/21 21:59 UTC NOAA

TAF
AMD KBWI 212059Z 2121/2224 12004KT P6SM SKC
FM221300 33008G15KT P6SM FEW120 FEW250
FM222300 29007KT P6SM FEW100 SCT250

Example: see airport list